createdAt,value
2023-04-05T00:01:31.682Z,100514.39
2023-04-05T00:06:35.401Z,100509.18
2023-04-05T00:11:38.957Z,100512.44
2023-04-05T00:16:42.868Z,100510.40
2023-04-05T00:21:46.985Z,100504.92
2023-04-05T00:26:50.901Z,100503.52
2023-04-05T00:31:54.231Z,100497.85
2023-04-05T00:36:58.033Z,100494.65
2023-04-05T00:42:04.913Z,100487.36
2023-04-05T00:47:08.343Z,100487.09
2023-04-05T00:52:13.400Z,100482.43
2023-04-05T00:57:17.420Z,100484.80
2023-04-05T01:02:28.750Z,100486.25
2023-04-05T01:07:50.665Z,100481.06
2023-04-05T01:12:54.798Z,100480.31
2023-04-05T01:18:02.346Z,100477.16
2023-04-05T01:23:23.272Z,100476.50
2023-04-05T01:29:05.139Z,100471.34
2023-04-05T01:34:26.165Z,100475.38
2023-04-05T01:39:31.458Z,100481.38
2023-04-05T01:44:35.041Z,100479.24
2023-04-05T01:49:38.457Z,100475.27
2023-04-05T01:54:41.976Z,100475.42
2023-04-05T01:59:45.591Z,100474.17
2023-04-05T02:04:49.002Z,100476.98
2023-04-05T02:09:52.418Z,100471.00
2023-04-05T02:14:56.250Z,100463.59
2023-04-05T02:20:09.384Z,100464.29
2023-04-05T02:25:13.822Z,100463.17
2023-04-05T02:30:17.128Z,100458.23
2023-04-05T02:35:21.599Z,100460.23
2023-04-05T02:40:25.613Z,100459.27
2023-04-05T02:45:29.169Z,100458.38
2023-04-05T02:50:32.622Z,100456.46
2023-04-05T02:55:36.137Z,100449.21
2023-04-05T03:00:41.147Z,100444.20
2023-04-05T03:05:45.320Z,100441.52
2023-04-05T03:10:48.733Z,100439.96
2023-04-05T03:15:55.335Z,100440.30
2023-04-05T03:20:59.201Z,100447.77
2023-04-05T03:26:04.301Z,100448.41
2023-04-05T03:31:07.733Z,100445.09
2023-04-05T03:36:11.757Z,100442.85
2023-04-05T03:41:16.499Z,100442.76
2023-04-05T03:46:20.090Z,100434.66
2023-04-05T03:51:24.100Z,100433.48
2023-04-05T03:56:27.549Z,100431.02
2023-04-05T04:01:31.494Z,100418.98
2023-04-05T04:06:34.910Z,100420.31
2023-04-05T04:11:38.400Z,100423.25
2023-04-05T04:16:41.947Z,100426.46
2023-04-05T04:21:51.469Z,100425.98
2023-04-05T04:26:54.977Z,100428.71
2023-04-05T04:31:58.418Z,100432.55
2023-04-05T04:37:02.017Z,100430.50
2023-04-05T04:42:05.529Z,100436.30
2023-04-05T04:47:14.888Z,100434.10
2023-04-05T04:52:18.500Z,100436.56
2023-04-05T04:57:21.913Z,100440.16
2023-04-05T05:02:26.260Z,100433.35
2023-04-05T05:07:29.874Z,100441.95
2023-04-05T05:12:33.687Z,100438.45
2023-04-05T05:17:37.836Z,100444.50
2023-04-05T05:22:41.540Z,100444.73
2023-04-05T05:27:45.061Z,100445.48
2023-04-05T05:32:49.204Z,100444.98
2023-04-05T05:37:52.902Z,100443.52
2023-04-05T05:42:56.525Z,100451.39
2023-04-05T05:47:59.983Z,100454.45
2023-04-05T05:53:03.446Z,100453.11
2023-04-05T05:58:07.985Z,100455.65
2023-04-05T06:03:12.429Z,100456.50
2023-04-05T06:08:16.350Z,100451.26
2023-04-05T06:13:20.277Z,100455.00
2023-04-05T06:18:23.689Z,100450.45
2023-04-05T06:23:27.034Z,100454.12
2023-04-05T06:28:30.620Z,100456.80
2023-04-05T06:33:34.029Z,100452.06
2023-04-05T06:38:37.952Z,100451.27
2023-04-05T06:43:41.366Z,100449.64
2023-04-05T06:48:44.881Z,100447.50
2023-04-05T06:53:48.197Z,100446.74
2023-04-05T06:58:52.050Z,100446.18
2023-04-05T07:03:56.024Z,100451.40
2023-04-05T07:08:59.454Z,100444.41
2023-04-05T07:14:02.971Z,100449.68
2023-04-05T07:19:06.587Z,100458.34
2023-04-05T07:24:10.103Z,100456.45
2023-04-05T07:29:13.926Z,100458.48
2023-04-05T07:34:17.343Z,100456.01
2023-04-05T07:39:21.677Z,100460.86
2023-04-05T07:44:25.290Z,100460.00
2023-04-05T07:49:28.704Z,100459.58
2023-04-05T07:54:36.113Z,100465.48
2023-04-05T07:59:39.565Z,100463.41
2023-04-05T08:04:43.163Z,100469.42
2023-04-05T08:09:46.965Z,100470.81
2023-04-05T08:14:50.276Z,100471.27
2023-04-05T08:19:54.304Z,100472.00
2023-04-05T08:35:22.496Z,100480.41
2023-04-05T08:40:45.635Z,100482.41
2023-04-05T08:45:53.600Z,100484.25
2023-04-05T08:50:57.280Z,100481.80
2023-04-05T08:56:02.647Z,100485.24
2023-04-05T09:01:07.138Z,100489.14
2023-04-05T09:06:12.233Z,100489.39
2023-04-05T09:11:17.350Z,100495.14
2023-04-05T09:16:21.658Z,100490.98
2023-04-05T09:21:25.032Z,100496.20
2023-04-05T09:26:29.025Z,100498.70
2023-04-05T09:31:37.429Z,100495.48
2023-04-05T09:36:45.434Z,100494.39
2023-04-05T09:42:12.022Z,100500.46
2023-04-05T09:47:20.528Z,100497.97
2023-04-05T09:52:26.471Z,100502.98
2023-04-05T09:57:34.926Z,100505.64
2023-04-05T10:02:40.274Z,100510.50
2023-04-05T10:07:44.366Z,100514.45
2023-04-05T10:12:49.708Z,100513.04
2023-04-05T10:18:01.044Z,100515.64
2023-04-05T10:23:17.977Z,100518.11
2023-04-05T10:28:36.543Z,100521.73
2023-04-05T10:33:46.249Z,100519.31
2023-04-05T10:39:05.596Z,100520.60
2023-04-05T10:44:25.104Z,100527.66
2023-04-05T10:49:49.535Z,100517.48
2023-04-05T10:54:53.409Z,100515.49
2023-04-05T10:59:59.805Z,100517.30
2023-04-05T11:05:07.161Z,100515.02
2023-04-05T11:10:18.926Z,100513.55
2023-04-05T11:15:28.668Z,100515.41
2023-04-05T11:20:44.393Z,100513.30
2023-04-05T11:25:50.371Z,100519.42
2023-04-05T11:31:04.715Z,100511.71
2023-04-05T11:36:10.083Z,100522.51
2023-04-05T11:41:18.415Z,100521.73
2023-04-05T11:46:21.952Z,100520.64
2023-04-05T11:51:26.966Z,100525.02
2023-04-05T11:56:30.373Z,100522.73
2023-04-05T12:01:33.790Z,100522.09
2023-04-05T12:06:37.313Z,100524.50
2023-04-05T12:11:41.538Z,100522.83
2023-04-05T12:16:51.095Z,100521.16
2023-04-05T12:21:54.611Z,100515.86
2023-04-05T12:27:00.597Z,100511.11
2023-04-05T12:32:04.942Z,100512.38
2023-04-05T12:37:10.800Z,100513.19
2023-04-05T12:42:18.297Z,100508.64
2023-04-05T12:47:21.913Z,100503.08
2023-04-05T12:52:27.684Z,100505.95
2023-04-05T12:57:34.385Z,100504.33
2023-04-05T13:02:37.869Z,100499.92
2023-04-05T13:07:41.564Z,100502.54
2023-04-05T13:12:45.999Z,100507.02
2023-04-05T13:17:53.613Z,100508.08
2023-04-05T13:22:57.102Z,100507.84
2023-04-05T13:28:00.900Z,100507.56
2023-04-05T13:33:05.090Z,100508.23
2023-04-05T13:38:08.447Z,100506.86
2023-04-05T13:43:11.797Z,100508.80
2023-04-05T13:48:15.265Z,100510.67
2023-04-05T13:53:18.575Z,100514.04
2023-04-05T13:58:21.993Z,100514.38
2023-04-05T14:03:26.238Z,100517.36
2023-04-05T14:08:29.534Z,100517.30
2023-04-05T14:13:32.964Z,100520.59
2023-04-05T14:18:36.459Z,100523.28
2023-04-05T14:23:39.874Z,100526.02
2023-04-05T14:28:43.387Z,100528.81
2023-04-05T14:33:47.025Z,100527.02
2023-04-05T14:38:50.521Z,100530.64
2023-04-05T14:43:54.902Z,100534.40
2023-04-05T14:48:58.374Z,100532.72
2023-04-05T14:54:02.095Z,100534.45
2023-04-05T14:59:05.852Z,100541.70
2023-04-05T15:04:09.512Z,100542.92
2023-04-05T15:09:13.254Z,100538.20
2023-04-05T15:14:28.586Z,100542.67
2023-04-05T15:19:36.472Z,100542.52
2023-04-05T15:24:41.906Z,100542.25
2023-04-05T15:29:45.542Z,100547.55
2023-04-05T15:34:49.165Z,100551.01
2023-04-05T15:39:52.581Z,100555.39
2023-04-05T15:44:56.404Z,100554.07
2023-04-05T15:49:59.914Z,100548.83
2023-04-05T15:55:04.550Z,100554.55
2023-04-05T16:00:09.001Z,100560.64
2023-04-05T16:05:41.189Z,100564.23
2023-04-05T16:11:04.047Z,100566.49
2023-04-05T16:16:07.884Z,100573.73
2023-04-05T16:21:11.691Z,100573.54
2023-04-05T16:26:15.268Z,100575.41
2023-04-05T16:31:19.150Z,100573.71
2023-04-05T16:36:22.762Z,100574.86
2023-04-05T16:41:26.378Z,100580.03
2023-04-05T16:46:32.536Z,100585.08
2023-04-05T16:51:36.785Z,100588.55
2023-04-05T16:56:40.090Z,100593.61
2023-04-05T17:01:43.716Z,100592.20
2023-04-05T17:06:47.838Z,100589.69
2023-04-05T17:11:51.863Z,100590.77
2023-04-05T17:16:56.036Z,100593.83
2023-04-05T17:21:59.890Z,100597.80
2023-04-05T17:27:04.425Z,100599.63
2023-04-05T17:32:08.281Z,100599.65
2023-04-05T17:37:11.610Z,100604.66
2023-04-05T17:42:15.217Z,100609.05
2023-04-05T17:47:18.649Z,100612.73
2023-04-05T17:52:22.859Z,100615.90
2023-04-05T17:57:26.374Z,100613.79
2023-04-05T18:02:29.851Z,100616.86
2023-04-05T18:07:40.097Z,100624.97
2023-04-05T18:12:43.985Z,100625.77
2023-04-05T18:17:47.691Z,100631.63
2023-04-05T18:22:51.150Z,100637.83
2023-04-05T18:27:56.070Z,100637.52
2023-04-05T18:32:59.536Z,100637.80
2023-04-05T18:38:04.333Z,100638.73
2023-04-05T18:43:07.848Z,100635.20
2023-04-05T18:48:11.825Z,100634.68
2023-04-05T18:53:15.736Z,100640.52
2023-04-05T18:58:19.818Z,100639.91
2023-04-05T19:03:23.375Z,100643.52
2023-04-05T19:08:27.179Z,100648.83
2023-04-05T19:13:31.201Z,100656.30
2023-04-05T19:18:34.804Z,100657.16
2023-04-05T19:23:39.035Z,100659.02
2023-04-05T19:28:42.968Z,100667.27
2023-04-05T19:33:46.613Z,100666.11
2023-04-05T19:38:52.140Z,100665.77
2023-04-05T19:43:55.352Z,100663.46
2023-04-05T19:49:09.082Z,100667.38
2023-04-05T19:54:15.091Z,100666.34
2023-04-05T19:59:30.833Z,100663.33
2023-04-05T20:04:39.182Z,100665.33
2023-04-05T20:09:43.960Z,100668.13
2023-04-05T20:14:49.007Z,100671.73
2023-04-05T20:19:57.822Z,100662.82
2023-04-05T20:25:23.074Z,100664.77
2023-04-05T20:30:26.622Z,100665.34
2023-04-05T20:35:36.569Z,100667.75
2023-04-05T20:40:39.871Z,100670.20
2023-04-05T20:45:43.413Z,100666.98
2023-04-05T20:50:47.672Z,100668.44
2023-04-05T20:55:51.642Z,100671.02
2023-04-05T21:00:56.078Z,100668.39
2023-04-05T21:06:01.027Z,100663.20
2023-04-05T21:11:05.361Z,100665.99
2023-04-05T21:16:09.141Z,100665.02
2023-04-05T21:21:12.809Z,100665.70
2023-04-05T21:26:16.525Z,100665.58
2023-04-05T21:31:19.999Z,100660.79
2023-04-05T21:36:23.766Z,100658.12
2023-04-05T21:41:27.580Z,100657.59
2023-04-05T21:46:31.025Z,100660.98
2023-04-05T21:51:34.517Z,100659.98
2023-04-05T21:56:38.131Z,100657.11
2023-04-05T22:01:41.693Z,100655.09
2023-04-05T22:06:45.166Z,100653.94
2023-04-05T22:11:50.556Z,100655.93
2023-04-05T22:16:54.509Z,100656.75
2023-04-05T22:21:58.064Z,100654.89
2023-04-05T22:27:03.014Z,100657.39
2023-04-05T22:32:07.205Z,100659.15
2023-04-05T22:37:11.474Z,100662.98
2023-04-05T22:42:14.886Z,100669.76
2023-04-05T22:47:18.401Z,100670.88
2023-04-05T22:52:22.014Z,100669.20
2023-04-05T22:57:25.838Z,100663.46
2023-04-05T23:02:30.520Z,100661.19
2023-04-05T23:07:34.004Z,100660.13
2023-04-05T23:12:37.617Z,100657.05
2023-04-05T23:17:41.242Z,100657.33
2023-04-05T23:22:44.861Z,100652.12
2023-04-05T23:27:48.367Z,100649.29
2023-04-05T23:32:52.027Z,100650.52
2023-04-05T23:37:55.603Z,100651.35
2023-04-05T23:42:59.119Z,100649.21
2023-04-05T23:48:03.057Z,100647.14
2023-04-05T23:53:06.765Z,100647.59
2023-04-05T23:58:10.189Z,100648.52
